CheckWX is a tool to help pilots better visualize weather data.  It is not intended as a substitute for an official pre-flight weather briefing.

02:36:18 UTC

KLRF METAR
Little Rock AFB Airport
Jacksonville, Arkansas, USA
Current

24 mins ago

KLRF 060212Z AUTO 14005KT 10SM FEW011 BKN100 OVC140 14/07 A2998 RMK AO2 RAE12 SLP155 $
Observed
Dec-6 @ 02:12 UTC
Wind
  • 140° at 5 KTS
Visibility
10 SM
Flight Rules
VFR
Cloud Levels
  • Few at 1,100' AGL
  • Broken at 10,000' AGL
  • Overcast at 14,000' AGL
Temperature
14°C / 57°F
Dewpoint
C / 45°F
Humidity
63%
Altimeter
29.98" Hg
Pressure
1015.22 hPa
Previous

40 mins ago

KLRF 060156Z AUTO 14004KT 10SM -RA FEW012 SCT100 BKN140 15/06 A2998 RMK AO2 RAB53 SLP155 P0000 T01490062 $
Observed
Dec-6 @ 01:56 UTC
Wind
  • 140° at 4 KTS
Visibility
10 SM
Flight Rules
VFR
Conditions
Light Rain
Cloud Levels
  • Few at 1,200' AGL
  • Scattered at 10,000' AGL
  • Broken at 14,000' AGL
Temperature
15°C / 59°F
Dewpoint
C / 43°F
Humidity
55%
Altimeter
29.98" Hg
Pressure
1015.22 hPa
Current Rain
0.01"
Previous

2 hours ago

KLRF 060056Z AUTO 15006KT 10SM OVC100 16/06 A2998 RMK AO2 SLP155 T01560055 $
Observed
Dec-6 @ 00:56 UTC
Wind
  • 150° at 6 KTS
Visibility
10 SM
Flight Rules
VFR
Cloud Levels
  • Overcast at 10,000' AGL
Temperature
16°C / 61°F
Dewpoint
C / 43°F
Humidity
52%
Altimeter
29.98" Hg
Pressure
1015.22 hPa